createdAt,value
2022-08-17T00:00:56.489Z,45.60
2022-08-17T00:02:30.378Z,45.66
2022-08-17T00:04:10.767Z,45.51
2022-08-17T00:05:49.433Z,45.69
2022-08-17T00:07:21.029Z,45.54
2022-08-17T00:08:56.889Z,45.88
2022-08-17T00:10:28.607Z,45.81
2022-08-17T00:12:40.550Z,45.85
2022-08-17T00:13:56.383Z,45.60
2022-08-17T00:15:27.979Z,45.47
2022-08-17T00:17:00.120Z,45.56
2022-08-17T00:19:06.880Z,45.58
2022-08-17T00:20:32.057Z,45.85
2022-08-17T00:22:32.942Z,45.93
2022-08-17T00:23:59.668Z,46.15
2022-08-17T00:25:32.103Z,46.20
2022-08-17T00:27:04.259Z,46.24
2022-08-17T00:28:36.639Z,46.21
2022-08-17T00:30:09.094Z,46.26
2022-08-17T00:31:40.696Z,46.31
2022-08-17T00:33:16.604Z,46.24
2022-08-17T00:34:48.555Z,46.38
2022-08-17T00:36:20.751Z,46.45
2022-08-17T00:37:52.298Z,46.45
2022-08-17T00:39:23.938Z,46.61
2022-08-17T00:40:59.145Z,46.67
2022-08-17T00:42:31.462Z,46.65
2022-08-17T00:44:03.906Z,46.61
2022-08-17T00:45:35.539Z,46.87
2022-08-17T00:47:07.663Z,46.96
2022-08-17T00:48:39.268Z,46.95
2022-08-17T00:50:13.343Z,47.16
2022-08-17T00:51:57.117Z,47.00
2022-08-17T00:53:29.623Z,46.95
2022-08-17T00:55:01.270Z,46.97
2022-08-17T00:56:33.937Z,46.96
2022-08-17T00:58:05.574Z,47.10
2022-08-17T00:59:41.415Z,47.23
2022-08-17T01:01:13.153Z,47.19
2022-08-17T01:02:55.139Z,47.27
2022-08-17T01:04:27.060Z,47.26
2022-08-17T01:05:59.042Z,47.40
2022-08-17T01:07:31.231Z,47.45
2022-08-17T01:09:03.628Z,47.49
2022-08-17T01:10:59.608Z,47.46
2022-08-17T01:12:31.803Z,47.48
2022-08-17T01:14:03.525Z,47.68
2022-08-17T01:15:38.466Z,47.46
2022-08-17T01:17:10.032Z,47.50
2022-08-17T01:18:42.387Z,47.55
2022-08-17T01:20:14.371Z,47.50
2022-08-17T01:22:04.851Z,47.59
2022-08-17T01:23:36.665Z,47.72
2022-08-17T01:25:09.078Z,47.70
2022-08-17T01:26:41.700Z,47.80
2022-08-17T01:28:13.298Z,47.80
2022-08-17T01:30:06.354Z,47.77
2022-08-17T01:31:59.027Z,48.17
2022-08-17T01:33:30.755Z,48.06
2022-08-17T01:35:02.683Z,47.93
2022-08-17T01:36:34.749Z,48.07
2022-08-17T01:38:06.959Z,48.22
2022-08-17T01:39:43.095Z,48.14
2022-08-17T01:41:15.427Z,48.09
2022-08-17T01:42:57.058Z,48.28
2022-08-17T01:44:29.291Z,48.28
2022-08-17T01:46:02.495Z,48.14
2022-08-17T01:47:36.057Z,48.04
2022-08-17T01:49:08.640Z,48.03
2022-08-17T01:50:42.351Z,47.95
2022-08-17T01:52:14.047Z,48.16
2022-08-17T01:53:48.766Z,48.45
2022-08-17T01:55:23.460Z,48.44
2022-08-17T01:56:59.513Z,48.66
2022-08-17T01:58:32.067Z,48.76
2022-08-17T02:00:05.629Z,48.91
2022-08-17T02:01:38.426Z,48.67
2022-08-17T02:03:10.785Z,48.71
2022-08-17T02:04:42.445Z,48.69
2022-08-17T02:06:27.898Z,48.71
2022-08-17T02:08:00.905Z,48.63
2022-08-17T02:09:32.666Z,48.77
2022-08-17T02:11:05.728Z,48.52
2022-08-17T02:12:43.262Z,48.90
2022-08-17T02:14:14.952Z,48.70
2022-08-17T02:15:46.779Z,48.89
2022-08-17T02:17:18.397Z,49.03
2022-08-17T02:18:50.228Z,49.24
2022-08-17T02:20:41.574Z,49.29
2022-08-17T02:22:13.900Z,49.58
2022-08-17T02:23:46.561Z,49.78
2022-08-17T02:25:18.742Z,49.63
2022-08-17T02:26:50.574Z,49.71
2022-08-17T02:28:22.650Z,49.70
2022-08-17T02:29:54.489Z,49.84
2022-08-17T02:31:26.030Z,49.73
2022-08-17T02:32:57.894Z,49.83
2022-08-17T02:34:30.430Z,50.04
2022-08-17T02:36:02.712Z,49.81
2022-08-17T02:37:34.386Z,49.95
2022-08-17T02:39:06.669Z,49.91
2022-08-17T02:40:40.724Z,50.03
2022-08-17T02:42:13.967Z,49.85
2022-08-17T02:43:45.516Z,50.19
2022-08-17T02:45:18.897Z,50.24
2022-08-17T02:46:50.642Z,50.16
2022-08-17T02:48:30.736Z,50.42
2022-08-17T02:50:04.163Z,50.56
2022-08-17T02:51:35.843Z,50.61
2022-08-17T02:53:07.898Z,50.79
2022-08-17T02:54:42.394Z,50.94
2022-08-17T02:56:14.328Z,50.81
2022-08-17T02:57:47.096Z,50.47
2022-08-17T02:59:19.071Z,50.77
2022-08-17T03:00:50.847Z,50.54
2022-08-17T03:02:22.465Z,51.01
2022-08-17T03:03:54.265Z,51.05
2022-08-17T03:05:26.958Z,51.05
2022-08-17T03:06:58.978Z,50.81
2022-08-17T03:08:30.699Z,50.96
2022-08-17T03:10:02.242Z,50.93
2022-08-17T03:11:33.920Z,51.10
2022-08-17T03:13:05.752Z,51.18
2022-08-17T03:14:41.300Z,51.09
2022-08-17T03:16:13.487Z,51.13
2022-08-17T03:17:45.417Z,51.08
2022-08-17T03:19:16.995Z,51.21
2022-08-17T03:20:48.604Z,51.04
2022-08-17T03:22:36.247Z,50.77
2022-08-17T03:24:09.267Z,50.76
2022-08-17T03:25:43.441Z,51.04
2022-08-17T03:27:16.045Z,51.06
2022-08-17T03:28:48.669Z,51.02
2022-08-17T03:30:22.605Z,51.19
2022-08-17T03:31:54.289Z,51.32
2022-08-17T03:33:25.911Z,51.33
2022-08-17T03:34:58.292Z,51.67
2022-08-17T03:36:29.932Z,51.53
2022-08-17T03:38:11.351Z,51.68
2022-08-17T03:39:43.043Z,51.88
2022-08-17T03:41:14.846Z,51.80
2022-08-17T03:42:46.820Z,51.85
2022-08-17T03:44:18.392Z,52.12
2022-08-17T03:46:26.950Z,52.03
2022-08-17T03:48:19.326Z,51.85
2022-08-17T03:50:10.566Z,52.18
2022-08-17T03:52:01.263Z,52.14
2022-08-17T03:53:51.745Z,52.06
2022-08-17T03:55:42.208Z,52.05
2022-08-17T03:57:13.890Z,52.07
2022-08-17T03:58:46.261Z,52.25
2022-08-17T04:00:17.972Z,52.17
2022-08-17T04:01:53.224Z,52.28
2022-08-17T04:03:25.008Z,52.42
2022-08-17T04:04:56.844Z,52.34
2022-08-17T04:06:28.936Z,52.19
2022-08-17T04:08:00.599Z,52.26
2022-08-17T04:09:32.263Z,52.41
2022-08-17T04:11:03.973Z,52.27
2022-08-17T04:12:46.025Z,52.21
2022-08-17T04:14:17.643Z,52.36
2022-08-17T04:15:49.461Z,52.49
2022-08-17T04:17:25.311Z,52.49
2022-08-17T04:18:57.412Z,52.30
2022-08-17T04:20:29.357Z,52.27
2022-08-17T04:22:01.503Z,52.30
2022-08-17T04:23:35.236Z,52.22
2022-08-17T04:25:08.571Z,52.28
2022-08-17T04:26:52.925Z,52.16
2022-08-17T04:28:26.319Z,52.32
2022-08-17T04:29:58.805Z,52.38
2022-08-17T04:31:30.492Z,52.32
2022-08-17T04:33:12.333Z,52.40
2022-08-17T04:34:44.127Z,52.67
2022-08-17T04:36:15.912Z,52.73
2022-08-17T04:37:47.822Z,52.50
2022-08-17T04:39:19.624Z,52.53
2022-08-17T04:41:10.186Z,52.48
2022-08-17T04:42:42.017Z,52.44
2022-08-17T04:44:13.745Z,52.47
2022-08-17T04:46:06.300Z,52.76
2022-08-17T04:47:38.085Z,52.75
2022-08-17T04:49:10.388Z,52.82
2022-08-17T04:50:45.772Z,52.68
2022-08-17T04:52:29.696Z,52.56
2022-08-17T04:54:16.341Z,52.57
2022-08-17T04:55:50.363Z,52.69
2022-08-17T04:57:22.594Z,52.52
2022-08-17T04:58:55.260Z,52.56
2022-08-17T05:00:27.216Z,52.41
2022-08-17T05:01:58.945Z,52.36
2022-08-17T05:03:30.559Z,52.26
2022-08-17T05:05:02.234Z,52.24
2022-08-17T05:06:33.785Z,52.11
2022-08-17T05:08:05.923Z,52.09
2022-08-17T05:09:37.548Z,52.00
2022-08-17T05:11:09.771Z,52.04
2022-08-17T05:12:41.408Z,51.84
2022-08-17T05:14:13.770Z,51.94
2022-08-17T05:15:47.656Z,52.11
2022-08-17T05:17:19.842Z,51.91
2022-08-17T05:18:51.931Z,51.73
2022-08-17T05:20:23.795Z,51.79
2022-08-17T05:21:55.599Z,51.60
2022-08-17T05:23:27.435Z,51.47
2022-08-17T05:25:10.179Z,51.57
2022-08-17T05:26:42.687Z,51.57
2022-08-17T05:28:15.359Z,51.76
2022-08-17T05:29:47.807Z,51.99
2022-08-17T05:31:20.128Z,52.03
2022-08-17T05:32:57.161Z,52.05
2022-08-17T05:34:29.001Z,51.73
2022-08-17T05:36:00.782Z,51.66
2022-08-17T05:37:32.657Z,51.73
2022-08-17T05:39:04.956Z,51.68
2022-08-17T05:40:37.138Z,51.52
2022-08-17T05:42:08.973Z,51.39
2022-08-17T05:43:41.248Z,51.54
2022-08-17T05:45:14.158Z,51.73
2022-08-17T05:46:48.656Z,51.72
2022-08-17T05:48:20.747Z,51.83
2022-08-17T05:50:09.745Z,51.75
2022-08-17T05:52:00.453Z,51.63
2022-08-17T05:53:39.215Z,51.14
2022-08-17T05:55:31.518Z,51.06
2022-08-17T05:57:23.913Z,51.36
2022-08-17T05:58:55.801Z,51.04
2022-08-17T06:00:31.492Z,50.86
2022-08-17T06:02:09.053Z,50.88
2022-08-17T06:03:50.892Z,50.53
2022-08-17T06:05:39.289Z,50.44
2022-08-17T06:07:23.248Z,50.51
2022-08-17T06:09:13.532Z,50.29
2022-08-17T06:10:48.952Z,50.01
2022-08-17T06:13:54.605Z,50.27
2022-08-17T06:15:29.435Z,50.27
2022-08-17T06:17:02.960Z,50.44
2022-08-17T06:18:37.251Z,50.46
2022-08-17T06:20:10.394Z,50.39
2022-08-17T06:21:43.126Z,50.29
2022-08-17T06:23:16.242Z,50.16
2022-08-17T06:24:50.327Z,49.90
2022-08-17T06:26:25.882Z,50.08
2022-08-17T06:28:03.303Z,50.32
2022-08-17T06:29:50.196Z,50.39
2022-08-17T06:31:33.269Z,49.98
2022-08-17T06:33:06.816Z,49.64
2022-08-17T06:34:38.685Z,49.52
2022-08-17T06:36:10.606Z,49.55
2022-08-17T06:38:06.021Z,49.42
2022-08-17T06:39:50.755Z,49.45
2022-08-17T06:41:23.377Z,49.10
2022-08-17T07:01:50.371Z,48.46
2022-08-17T07:03:24.619Z,48.14
2022-08-17T07:04:56.992Z,47.83
2022-08-17T07:06:29.817Z,47.55
2022-08-17T07:08:03.644Z,47.32
2022-08-17T07:09:36.132Z,47.01
2022-08-17T07:11:18.771Z,47.05
2022-08-17T07:12:50.631Z,47.09
2022-08-17T07:14:37.929Z,46.60
2022-08-17T07:16:28.703Z,46.66
2022-08-17T07:18:00.791Z,46.29
2022-08-17T07:19:33.556Z,46.38
2022-08-17T07:21:09.283Z,46.17
2022-08-17T07:22:59.655Z,46.05
2022-08-17T07:24:52.897Z,46.23
2022-08-17T07:26:24.618Z,45.67
2022-08-17T07:28:00.144Z,45.76
2022-08-17T07:29:33.568Z,46.19
2022-08-17T07:31:05.473Z,46.24
2022-08-17T07:32:40.581Z,45.91
2022-08-17T07:34:15.830Z,45.50
2022-08-17T07:35:48.525Z,45.91
2022-08-17T07:47:50.602Z,45.31
2022-08-17T07:49:35.305Z,44.85
2022-08-17T07:51:16.461Z,44.94
2022-08-17T07:52:51.647Z,44.88
2022-08-17T07:54:24.688Z,44.67
2022-08-17T07:55:56.596Z,44.22
2022-08-17T07:57:32.348Z,44.15
2022-08-17T07:59:15.298Z,44.13
2022-08-17T08:00:47.001Z,44.43
2022-08-17T08:02:45.963Z,44.33
2022-08-17T08:06:29.506Z,44.17
2022-08-17T08:08:04.905Z,44.19
2022-08-17T08:09:46.601Z,43.43
2022-08-17T08:11:44.105Z,43.23
2022-08-17T08:13:16.417Z,43.02
2022-08-17T08:15:11.429Z,42.86
2022-08-17T08:16:44.869Z,43.23
2022-08-17T08:18:53.563Z,42.83
2022-08-17T08:20:52.563Z,42.43
2022-08-17T08:22:29.228Z,42.14
2022-08-17T08:24:10.387Z,42.21
2022-08-17T08:25:45.584Z,41.95
2022-08-17T08:27:20.692Z,41.72
2022-08-17T08:29:02.492Z,41.59
2022-08-17T08:30:35.565Z,41.41
2022-08-17T08:32:10.036Z,41.55
2022-08-17T08:33:48.631Z,41.46
2022-08-17T08:35:21.856Z,41.42
2022-08-17T08:37:19.299Z,41.03
2022-08-17T08:39:01.230Z,40.91
2022-08-17T08:40:33.140Z,40.70
2022-08-17T08:42:07.970Z,40.52
2022-08-17T08:43:58.805Z,40.26
2022-08-17T08:45:38.443Z,39.92
2022-08-17T08:47:14.430Z,39.80
2022-08-17T08:48:56.174Z,39.58
2022-08-17T08:50:37.962Z,39.44
2022-08-17T08:52:14.945Z,39.45
2022-08-17T08:53:55.606Z,39.18
2022-08-17T08:55:27.236Z,39.40
2022-08-17T08:57:25.606Z,39.30
2022-08-17T08:59:28.938Z,39.23
2022-08-17T09:01:01.117Z,39.24
2022-08-17T09:02:34.638Z,39.00
2022-08-17T09:04:25.567Z,38.87
2022-08-17T09:06:04.022Z,39.14
2022-08-17T09:07:51.429Z,38.68
2022-08-17T09:09:47.643Z,39.03
2022-08-17T09:11:36.128Z,38.42
2022-08-17T09:13:30.524Z,38.71
2022-08-17T09:15:21.773Z,38.51
2022-08-17T09:16:56.165Z,38.49
2022-08-17T09:19:01.392Z,38.17
2022-08-17T09:20:35.094Z,38.27
2022-08-17T09:22:12.213Z,38.02
2022-08-17T09:23:45.456Z,37.37
2022-08-17T09:25:22.024Z,37.23
2022-08-17T09:26:56.740Z,37.02
2022-08-17T09:28:35.189Z,37.09
2022-08-17T09:30:11.736Z,36.85
2022-08-17T09:31:57.016Z,36.76
2022-08-17T09:33:28.894Z,37.03
2022-08-17T09:35:02.086Z,37.02
2022-08-17T09:37:00.412Z,36.64
2022-08-17T09:38:41.905Z,36.61
2022-08-17T09:40:18.572Z,36.39
2022-08-17T09:41:55.991Z,36.22
2022-08-17T09:43:40.079Z,35.91
2022-08-17T09:45:21.105Z,36.31
2022-08-17T09:46:56.491Z,35.98
2022-08-17T09:48:33.915Z,35.77
2022-08-17T09:50:14.383Z,35.68
2022-08-17T09:51:49.062Z,35.68
2022-08-17T09:53:21.035Z,35.39
2022-08-17T09:54:53.437Z,35.14
2022-08-17T09:56:34.137Z,35.34
2022-08-17T09:58:28.978Z,35.13
2022-08-17T10:00:10.637Z,34.87
2022-08-17T10:01:47.984Z,34.42
2022-08-17T10:03:38.407Z,34.34
2022-08-17T10:05:14.303Z,34.22
2022-08-17T10:06:59.352Z,33.86
2022-08-17T10:08:30.979Z,33.94
2022-08-17T10:10:14.367Z,33.89
2022-08-17T10:12:17.468Z,34.31
2022-08-17T10:13:53.340Z,34.30
2022-08-17T10:15:25.663Z,33.94
2022-08-17T10:17:17.704Z,33.74
2022-08-17T10:19:07.630Z,33.80
2022-08-17T10:20:47.319Z,33.89
2022-08-17T10:22:43.160Z,33.77
2022-08-17T10:24:39.408Z,33.01
2022-08-17T11:23:53.412Z,31.38
2022-08-17T11:25:45.556Z,31.29
2022-08-17T11:27:21.027Z,31.48
2022-08-17T11:28:54.647Z,31.21
2022-08-17T11:30:41.499Z,31.25
2022-08-17T11:32:37.488Z,31.23
2022-08-17T11:34:26.692Z,30.77
2022-08-17T11:36:10.523Z,30.87
2022-08-17T11:37:42.090Z,30.58
2022-08-17T11:39:19.769Z,30.30
2022-08-17T11:41:10.688Z,30.64
2022-08-17T11:42:48.994Z,30.54
2022-08-17T11:44:33.143Z,30.11
2022-08-17T11:46:17.329Z,30.70
2022-08-17T11:48:29.133Z,30.52
2022-08-17T11:50:27.985Z,30.37
2022-08-17T11:52:01.191Z,29.97
2022-08-17T11:53:39.677Z,30.13
2022-08-17T11:55:34.513Z,30.39
2022-08-17T11:57:21.913Z,30.39
2022-08-17T11:58:54.016Z,30.56
2022-08-17T12:00:44.757Z,30.70
2022-08-17T12:02:19.875Z,30.29
2022-08-17T12:03:59.304Z,30.00
2022-08-17T12:05:32.727Z,30.48
2022-08-17T12:07:09.648Z,30.17
2022-08-17T12:08:43.617Z,30.25
2022-08-17T12:10:17.430Z,30.03
2022-08-17T12:11:55.601Z,30.14
2022-08-17T12:13:45.195Z,29.73
2022-08-17T12:15:18.614Z,29.87
2022-08-17T12:17:07.406Z,29.97
2022-08-17T12:18:42.257Z,29.69
2022-08-17T12:20:19.786Z,30.17
2022-08-17T12:22:02.522Z,30.05
2022-08-17T12:23:36.510Z,29.63
2022-08-17T12:25:12.911Z,30.16
2022-08-17T12:26:49.547Z,29.55
2022-08-17T12:28:23.039Z,29.68
2022-08-17T12:29:55.599Z,29.47
2022-08-17T12:31:32.086Z,29.98
2022-08-17T12:33:04.094Z,29.97
2022-08-17T12:34:37.251Z,29.90
2022-08-17T12:36:09.078Z,29.42
2022-08-17T12:37:43.968Z,29.46
2022-08-17T12:39:21.283Z,29.80
2022-08-17T12:40:54.228Z,29.73
2022-08-17T12:42:33.236Z,29.58
2022-08-17T12:44:06.722Z,29.32
2022-08-17T12:45:42.168Z,29.65
2022-08-17T12:47:22.281Z,29.29
2022-08-17T12:48:59.601Z,29.29
2022-08-17T12:50:32.409Z,29.21
2022-08-17T12:52:06.208Z,29.34
2022-08-17T12:53:45.712Z,29.94
2022-08-17T12:55:21.411Z,29.91
2022-08-17T12:56:53.375Z,29.54
2022-08-17T12:58:27.132Z,29.57
2022-08-17T13:00:00.975Z,30.02
2022-08-17T13:01:35.139Z,29.59
2022-08-17T13:03:09.263Z,30.18
2022-08-17T13:04:44.853Z,29.87
2022-08-17T13:06:27.948Z,30.17
2022-08-17T13:08:00.170Z,30.03
2022-08-17T13:09:40.130Z,29.91
2022-08-17T13:11:16.600Z,29.99
2022-08-17T13:12:51.064Z,29.91
2022-08-17T13:14:22.995Z,29.84
2022-08-17T13:15:58.941Z,29.80
2022-08-17T13:17:32.567Z,30.17
2022-08-17T13:19:08.070Z,30.14
2022-08-17T13:20:39.759Z,30.14
2022-08-17T13:22:13.486Z,30.11
2022-08-17T13:23:58.429Z,29.57
2022-08-17T13:25:30.148Z,30.15
2022-08-17T13:27:01.980Z,29.85
2022-08-17T13:28:39.926Z,30.14
2022-08-17T13:30:14.349Z,30.30
2022-08-17T13:31:52.559Z,30.43
2022-08-17T13:33:43.314Z,29.98
2022-08-17T13:35:32.981Z,29.82
2022-08-17T13:37:18.237Z,30.32
2022-08-17T13:38:52.669Z,30.07
2022-08-17T13:40:29.529Z,29.83
2022-08-17T13:42:01.461Z,29.91
2022-08-17T13:43:46.752Z,30.18
2022-08-17T13:45:35.131Z,29.98
2022-08-17T13:47:15.932Z,30.26
2022-08-17T13:48:57.130Z,30.35
2022-08-17T13:50:28.968Z,30.21
2022-08-17T13:52:01.092Z,29.69
2022-08-17T13:53:47.811Z,29.75
2022-08-17T13:55:20.447Z,30.10
2022-08-17T13:56:54.426Z,29.58
2022-08-17T13:58:34.234Z,29.49
2022-08-17T14:00:12.280Z,30.03
2022-08-17T14:01:47.440Z,29.74
2022-08-17T14:03:23.151Z,29.99
2022-08-17T14:04:54.971Z,29.84
2022-08-17T14:06:52.595Z,29.55
2022-08-17T14:08:19.458Z,29.78
2022-08-17T14:10:02.179Z,30.11
2022-08-17T14:11:33.767Z,30.09
2022-08-17T14:13:05.930Z,29.88
2022-08-17T14:14:37.780Z,29.83
2022-08-17T14:16:09.511Z,29.51
2022-08-17T14:17:41.370Z,29.94
2022-08-17T14:19:13.415Z,29.57
2022-08-17T14:20:45.158Z,29.53
2022-08-17T14:22:27.112Z,29.08
2022-08-17T14:23:58.972Z,29.21
2022-08-17T14:25:30.842Z,29.11
2022-08-17T14:27:03.558Z,29.21
2022-08-17T14:28:35.419Z,29.01
2022-08-17T14:30:08.541Z,28.87
2022-08-17T14:31:40.263Z,28.92
2022-08-17T14:33:14.524Z,28.52
2022-08-17T14:34:47.185Z,28.56
2022-08-17T14:36:18.763Z,28.77
2022-08-17T14:37:50.854Z,28.80
2022-08-17T14:39:22.959Z,28.78
2022-08-17T14:40:54.593Z,28.80
2022-08-17T14:42:26.901Z,28.82
2022-08-17T14:43:58.601Z,29.03
2022-08-17T14:45:32.754Z,29.12
2022-08-17T14:47:05.518Z,29.00
2022-08-17T14:48:38.904Z,28.78
2022-08-17T14:50:11.672Z,29.14
2022-08-17T14:51:44.061Z,28.77
2022-08-17T14:53:16.972Z,28.97
2022-08-17T14:54:51.838Z,28.87
2022-08-17T14:56:24.412Z,29.12
2022-08-17T14:57:56.100Z,28.78
2022-08-17T14:59:28.263Z,29.32
2022-08-17T15:01:00.284Z,29.01
2022-08-17T15:02:32.079Z,28.92
2022-08-17T15:04:04.070Z,28.89
2022-08-17T15:05:36.829Z,28.74
2022-08-17T15:07:08.489Z,29.13
2022-08-17T15:08:40.390Z,28.46
2022-08-17T15:10:12.950Z,28.81
2022-08-17T15:11:45.011Z,29.06
2022-08-17T15:13:20.335Z,28.75
2022-08-17T15:14:52.114Z,28.62
2022-08-17T15:16:24.321Z,29.28
2022-08-17T15:17:56.923Z,29.12
2022-08-17T15:19:28.993Z,28.57
2022-08-17T15:21:02.499Z,29.09
2022-08-17T15:22:34.165Z,28.58
2022-08-17T15:24:06.043Z,28.70
2022-08-17T15:25:37.651Z,28.64
2022-08-17T15:27:10.064Z,28.60
2022-08-17T15:28:41.735Z,28.77
2022-08-17T15:30:13.411Z,28.77
2022-08-17T15:31:45.180Z,28.87
2022-08-17T15:33:18.060Z,28.50
2022-08-17T15:34:49.946Z,28.59
2022-08-17T15:36:22.382Z,28.65
2022-08-17T15:37:54.129Z,28.48
2022-08-17T15:39:25.853Z,28.57
2022-08-17T15:40:58.610Z,28.15
2022-08-17T15:42:30.231Z,28.46
2022-08-17T15:44:02.568Z,28.62
2022-08-17T15:45:34.462Z,28.36
2022-08-17T15:47:06.297Z,28.48
2022-08-17T15:48:42.241Z,28.50
2022-08-17T15:50:14.306Z,28.25
2022-08-17T15:51:45.882Z,28.03
2022-08-17T15:53:17.467Z,28.13
2022-08-17T15:54:56.488Z,28.10
2022-08-17T15:56:28.238Z,28.26
2022-08-17T15:58:00.249Z,28.77
2022-08-17T15:59:32.173Z,28.24
2022-08-17T16:01:16.741Z,28.22
2022-08-17T16:03:47.067Z,28.84
2022-08-17T16:04:46.583Z,28.71
2022-08-17T16:06:19.425Z,28.73
2022-08-17T16:07:51.294Z,28.77
2022-08-17T16:09:23.111Z,28.29
2022-08-17T16:10:55.479Z,28.42
2022-08-17T16:12:27.354Z,28.57
2022-08-17T16:13:59.332Z,28.75
2022-08-17T16:15:31.894Z,28.77
2022-08-17T16:17:04.732Z,28.38
2022-08-17T16:18:36.583Z,28.32
2022-08-17T16:20:09.934Z,28.87
2022-08-17T16:21:52.821Z,28.67
2022-08-17T16:23:24.826Z,29.03
2022-08-17T16:24:57.651Z,28.47
2022-08-17T16:26:29.951Z,28.57
2022-08-17T16:28:01.817Z,28.83
2022-08-17T16:29:34.083Z,29.05
2022-08-17T16:31:08.014Z,28.95
2022-08-17T16:32:42.255Z,28.70
2022-08-17T16:34:17.439Z,29.04
2022-08-17T16:35:50.355Z,28.71
2022-08-17T16:37:24.289Z,28.58
2022-08-17T16:38:57.280Z,28.99
2022-08-17T16:40:29.285Z,28.77
2022-08-17T16:42:03.219Z,28.90
2022-08-17T16:43:35.105Z,28.89
2022-08-17T16:45:08.183Z,28.81
2022-08-17T16:46:40.861Z,28.99
2022-08-17T16:48:18.678Z,29.08
2022-08-17T16:49:51.041Z,29.09
2022-08-17T16:51:23.018Z,29.29
2022-08-17T16:53:03.197Z,29.35
2022-08-17T16:54:35.749Z,29.48
2022-08-17T16:56:07.917Z,29.20
2022-08-17T16:57:47.206Z,29.35
2022-08-17T16:59:30.744Z,29.58
2022-08-17T17:01:11.296Z,29.46
2022-08-17T17:02:47.084Z,29.58
2022-08-17T17:04:19.551Z,29.49
2022-08-17T17:05:51.409Z,29.52
2022-08-17T17:07:45.555Z,29.60
2022-08-17T17:09:19.147Z,29.64
2022-08-17T17:10:51.402Z,29.78
2022-08-17T17:13:01.273Z,29.60
2022-08-17T17:14:15.790Z,29.89
2022-08-17T17:15:48.395Z,29.98
2022-08-17T17:17:33.536Z,29.91
2022-08-17T17:19:34.283Z,29.73
2022-08-17T17:21:08.893Z,29.87
2022-08-17T17:22:57.563Z,30.12
2022-08-17T17:24:37.707Z,30.03
2022-08-17T17:26:17.480Z,30.30
2022-08-17T17:28:08.040Z,30.27
2022-08-17T17:29:52.333Z,30.49
2022-08-17T17:31:24.908Z,30.46
2022-08-17T17:33:02.338Z,30.64
2022-08-17T17:34:34.952Z,30.93
2022-08-17T17:36:25.760Z,30.52
2022-08-17T17:37:57.689Z,30.62
2022-08-17T17:39:37.369Z,30.97
2022-08-17T17:41:11.590Z,30.78
2022-08-17T17:42:43.962Z,30.78
2022-08-17T17:44:18.742Z,31.29
2022-08-17T17:45:57.153Z,30.81
2022-08-17T17:47:31.539Z,31.00
2022-08-17T17:49:05.654Z,31.41
2022-08-17T17:50:38.636Z,31.09
2022-08-17T17:52:20.484Z,31.60
2022-08-17T17:54:02.008Z,31.65
2022-08-17T17:55:43.444Z,31.32
2022-08-17T17:57:27.094Z,31.41
2022-08-17T17:59:02.942Z,31.88
2022-08-17T18:00:34.753Z,31.49
2022-08-17T18:02:38.798Z,31.57
2022-08-17T18:04:20.881Z,31.77
2022-08-17T18:06:09.772Z,32.02
2022-08-17T18:07:47.171Z,32.22
2022-08-17T18:09:38.176Z,32.26
2022-08-17T18:11:25.841Z,32.33
2022-08-17T18:13:10.368Z,32.26
2022-08-17T18:14:51.128Z,32.22
2022-08-17T18:16:23.366Z,32.43
2022-08-17T18:18:10.881Z,32.40
2022-08-17T18:19:42.438Z,32.61
2022-08-17T18:21:17.504Z,32.63
2022-08-17T18:22:49.257Z,32.85
2022-08-17T18:24:40.037Z,32.89
2022-08-17T18:26:11.737Z,32.82
2022-08-17T18:27:50.230Z,32.82
2022-08-17T18:29:24.051Z,32.88
2022-08-17T18:31:07.754Z,32.94
2022-08-17T18:32:41.090Z,33.01
2022-08-17T18:34:46.456Z,32.98
2022-08-17T18:36:32.076Z,33.32
2022-08-17T18:38:42.403Z,33.29
2022-08-17T18:40:17.330Z,33.67
2022-08-17T18:41:49.992Z,33.43
2022-08-17T18:43:25.742Z,33.94
2022-08-17T18:44:57.546Z,33.68
2022-08-17T18:46:36.740Z,33.75
2022-08-17T18:48:27.975Z,33.72
2022-08-17T18:50:20.329Z,33.76
2022-08-17T18:52:12.308Z,33.99
2022-08-17T18:53:44.242Z,33.82
2022-08-17T18:55:22.813Z,33.77
2022-08-17T18:56:57.475Z,33.82
2022-08-17T18:58:29.624Z,33.74
2022-08-17T19:00:01.452Z,33.62
2022-08-17T19:01:47.583Z,33.76
2022-08-17T19:03:26.217Z,33.63
2022-08-17T19:04:57.999Z,33.62
2022-08-17T19:06:30.547Z,33.76
2022-08-17T19:08:16.114Z,33.69
2022-08-17T19:09:49.232Z,33.71
2022-08-17T19:11:24.633Z,33.87
2022-08-17T19:13:12.575Z,33.86
2022-08-17T19:14:44.962Z,34.08
2022-08-17T19:16:27.873Z,34.03
2022-08-17T19:18:28.085Z,34.04
2022-08-17T19:20:05.829Z,34.36
2022-08-17T19:21:39.617Z,34.25
2022-08-17T19:23:21.101Z,34.30
2022-08-17T19:25:02.592Z,34.38
2022-08-17T19:26:54.224Z,34.42
2022-08-17T19:28:50.293Z,34.61
2022-08-17T19:30:22.492Z,34.37
2022-08-17T19:31:57.497Z,34.74
2022-08-17T19:33:29.296Z,34.85
2022-08-17T19:35:01.575Z,34.88
2022-08-17T19:36:50.662Z,35.06
2022-08-17T19:38:40.022Z,35.17
2022-08-17T19:40:29.224Z,34.92
2022-08-17T19:42:14.890Z,35.13
2022-08-17T19:43:51.672Z,35.15
2022-08-17T19:45:33.580Z,35.03
2022-08-17T19:47:10.503Z,35.27
2022-08-17T19:48:52.044Z,35.15
2022-08-17T19:50:41.823Z,35.46
2022-08-17T19:52:16.310Z,35.41
2022-08-17T19:54:06.610Z,35.20
2022-08-17T19:55:58.143Z,35.48
2022-08-17T19:57:41.846Z,35.58
2022-08-17T19:59:13.837Z,35.69
2022-08-17T20:00:48.103Z,35.62
2022-08-17T20:02:34.349Z,35.57
2022-08-17T20:04:08.126Z,36.00
2022-08-17T20:06:13.531Z,35.97
2022-08-17T20:07:45.799Z,35.76
2022-08-17T20:09:38.051Z,35.90
2022-08-17T20:11:11.507Z,36.23
2022-08-17T20:12:44.208Z,36.19
2022-08-17T20:14:16.039Z,36.13
2022-08-17T20:15:47.975Z,36.38
2022-08-17T20:17:19.867Z,36.28
2022-08-17T20:19:02.476Z,36.53
2022-08-17T20:20:46.804Z,36.46
2022-08-17T20:22:27.290Z,36.55
2022-08-17T20:23:58.897Z,36.45
2022-08-17T20:25:48.156Z,36.39
2022-08-17T20:27:31.510Z,36.57
2022-08-17T20:29:09.231Z,36.51
2022-08-17T20:30:41.569Z,36.69
2022-08-17T20:32:15.195Z,36.86
2022-08-17T20:33:46.818Z,36.88
2022-08-17T20:35:18.597Z,36.52
2022-08-17T20:37:08.983Z,36.49
2022-08-17T20:38:42.279Z,36.63
2022-08-17T20:40:15.414Z,36.56
2022-08-17T20:42:16.844Z,36.71
2022-08-17T20:43:51.421Z,36.71
2022-08-17T20:45:26.688Z,36.71
2022-08-17T20:47:01.601Z,36.84
2022-08-17T20:48:38.686Z,36.92
2022-08-17T20:50:11.978Z,37.04
2022-08-17T20:52:01.817Z,37.13
2022-08-17T20:53:55.278Z,37.07
2022-08-17T20:55:52.070Z,37.16
2022-08-17T20:57:33.315Z,37.31
2022-08-17T20:59:05.262Z,37.50
2022-08-17T21:00:40.799Z,37.64
2022-08-17T21:02:19.326Z,37.44
2022-08-17T21:03:52.085Z,37.62
2022-08-17T21:05:34.522Z,37.69
2022-08-17T21:07:24.919Z,37.73
2022-08-17T21:09:16.746Z,37.57
2022-08-17T21:10:49.051Z,37.22
2022-08-17T21:14:41.043Z,37.79
2022-08-17T21:16:25.135Z,37.79
2022-08-17T21:18:18.570Z,37.57
2022-08-17T21:20:11.376Z,37.98
2022-08-17T21:21:52.931Z,37.81
2022-08-17T21:23:33.959Z,38.01
2022-08-17T21:25:05.557Z,38.14
2022-08-17T21:26:52.180Z,38.54
2022-08-17T21:28:33.875Z,38.54
2022-08-17T21:30:06.704Z,38.29
2022-08-17T21:31:43.647Z,38.56
2022-08-17T21:33:20.689Z,38.50
2022-08-17T21:35:07.633Z,38.75
2022-08-17T21:36:39.267Z,38.58
2022-08-17T21:38:12.429Z,38.75
2022-08-17T21:39:44.370Z,38.94
2022-08-17T21:41:23.296Z,38.98
2022-08-17T21:42:56.251Z,38.64
2022-08-17T21:44:32.088Z,39.03
2022-08-17T21:46:07.937Z,39.26
2022-08-17T21:47:43.807Z,38.86
2022-08-17T21:49:16.911Z,38.98
2022-08-17T21:50:57.955Z,38.98
2022-08-17T21:52:29.863Z,39.28
2022-08-17T21:54:02.662Z,39.32
2022-08-17T21:55:34.466Z,39.42
2022-08-17T21:57:06.947Z,39.45
2022-08-17T21:58:40.264Z,39.24
2022-08-17T22:00:16.978Z,39.29
2022-08-17T22:01:53.209Z,39.15
2022-08-17T22:03:26.096Z,39.21
2022-08-17T22:04:58.899Z,39.18
2022-08-17T22:06:34.402Z,39.24
2022-08-17T22:08:16.440Z,39.41
2022-08-17T22:09:48.990Z,39.47
2022-08-17T22:11:22.822Z,39.42
2022-08-17T22:13:06.172Z,39.72
2022-08-17T22:14:58.335Z,39.77
2022-08-17T22:16:29.951Z,39.90
2022-08-17T22:18:20.405Z,39.71
2022-08-17T22:19:59.349Z,40.02
2022-08-17T22:21:38.308Z,39.96
2022-08-17T22:23:32.886Z,39.70
2022-08-17T22:25:05.684Z,39.75
2022-08-17T22:26:55.456Z,39.84
2022-08-17T22:28:40.898Z,39.91